Time;durP1;ratioP1;P1;durP2;ratioP2;P2;SDS_P1;SDS_P2;PMS_P1;PMS_P2;Temp;Humidity;BMP_temperature;BMP_pressure;BME280_temperature;BME280_humidity;BME280_pressure;Samples;Min_cycle;Max_cycle;Signal;HPM_P1;HPM_P2
2022/08/15 00:01:26;;;;;;;11.48;1.60;;;40.10;49.10;;;;;;5068579;28;20296;-62
2022/08/15 00:03:59;;;;;;;5.50;1.60;;;40.20;49.00;;;;;;5069448;28;20061;-63
2022/08/15 00:06:32;;;;;;;13.13;1.60;;;40.20;48.90;;;;;;5068993;28;20493;-63
2022/08/15 00:09:01;;;;;;;6.97;1.95;;;40.20;49.10;;;;;;5070471;28;20073;-62
2022/08/15 00:11:40;;;;;;;9.35;1.70;;;40.10;49.10;;;;;;5070254;28;20380;-64
2022/08/15 00:14:20;;;;;;;7.25;1.45;;;40.00;48.90;;;;;;5068123;28;20154;-63
2022/08/15 00:16:48;;;;;;;9.43;1.73;;;40.00;48.80;;;;;;5068951;28;20041;-63
2022/08/15 00:19:30;;;;;;;9.77;1.80;;;40.00;49.10;;;;;;5068233;28;20065;-64
2022/08/15 00:22:01;;;;;;;8.30;1.70;;;39.90;49.90;;;;;;5053369;28;20062;-63
2022/08/15 00:24:30;;;;;;;9.63;1.42;;;39.80;50.10;;;;;;5068798;28;20067;-64
2022/08/15 00:27:04;;;;;;;11.35;1.90;;;39.90;50.70;;;;;;5068696;28;20488;-63
2022/08/15 00:29:32;;;;;;;9.38;1.77;;;39.80;49.20;;;;;;5068048;28;20061;-63
2022/08/15 00:32:00;;;;;;;14.52;2.15;;;39.80;49.80;;;;;;5068182;28;20047;-63
2022/08/15 00:34:27;;;;;;;16.92;1.98;;;39.80;49.40;;;;;;5068032;28;20074;-62
2022/08/15 00:36:53;;;;;;;8.60;2.03;;;39.70;49.30;;;;;;5067608;28;20095;-64
2022/08/15 00:39:23;;;;;;;11.25;1.95;;;39.70;49.20;;;;;;5051583;28;20423;-64
2022/08/15 00:41:50;;;;;;;6.88;1.70;;;39.70;49.00;;;;;;5067972;28;20067;-64
2022/08/15 00:44:40;;;;;;;8.68;1.70;;;39.80;49.30;;;;;;5069307;28;20054;-65
2022/08/15 00:47:15;;;;;;;5.15;1.70;;;39.90;50.00;;;;;;5067053;28;20489;-65
2022/08/15 00:49:43;;;;;;;5.97;1.50;;;39.80;50.10;;;;;;5068684;28;20043;-64
2022/08/15 00:52:20;;;;;;;5.80;1.40;;;39.90;50.30;;;;;;5051228;28;20390;-62
2022/08/15 00:55:03;;;;;;;3.65;1.25;;;39.80;49.60;;;;;;5068149;28;20520;-63
2022/08/15 00:57:34;;;;;;;5.57;1.13;;;39.80;49.30;;;;;;5068419;28;20512;-63
2022/08/15 01:00:11;;;;;;;6.65;1.50;;;39.80;49.60;;;;;;5067213;28;20051;-62
2022/08/15 01:02:38;;;;;;;5.82;1.25;;;39.80;49.60;;;;;;5066901;28;20057;-63
2022/08/15 01:05:15;;;;;;;7.13;1.90;;;39.80;49.40;;;;;;5068734;28;20044;-63
2022/08/15 01:07:45;;;;;;;7.40;1.50;;;39.80;49.70;;;;;;5069652;28;20042;-66
2022/08/15 01:10:12;;;;;;;8.15;1.95;;;39.70;49.40;;;;;;5069507;28;20039;-63
2022/08/15 01:12:39;;;;;;;9.93;2.03;;;39.70;49.70;;;;;;5069411;28;20071;-64
2022/08/15 01:15:10;;;;;;;14.35;2.63;;;39.60;49.60;;;;;;5068056;28;20054;-63
2022/08/15 01:17:37;;;;;;;8.57;2.17;;;39.60;49.90;;;;;;5069007;28;20148;-62
2022/08/15 01:20:11;;;;;;;8.20;2.15;;;39.60;49.70;;;;;;5068172;28;20054;-64
2022/08/15 01:23:25;;;;;;;10.13;2.75;;;39.60;50.40;;;;;;5068814;28;20586;-64
2022/08/15 01:25:59;;;;;;;6.35;2.25;;;39.50;50.20;;;;;;5029874;28;20110;-64
2022/08/15 01:28:35;;;;;;;6.97;1.90;;;39.50;49.80;;;;;;5028024;28;20051;-62
2022/08/15 01:31:06;;;;;;;9.38;2.40;;;39.40;50.40;;;;;;5046528;28;20037;-63
2022/08/15 01:33:42;;;;;;;15.65;3.10;;;39.30;50.00;;;;;;5029810;28;20051;-59
2022/08/15 01:36:10;;;;;;;10.82;3.80;;;39.30;50.20;;;;;;5047633;28;20107;-64
2022/08/15 01:38:44;;;;;;;16.95;6.75;;;39.30;50.70;;;;;;5030515;28;20056;-61
2022/08/15 01:41:23;;;;;;;20.73;10.18;;;39.20;50.80;;;;;;5046192;28;20140;-64
2022/08/15 01:44:05;;;;;;;10.48;4.63;;;39.10;50.70;;;;;;5030144;28;20044;-61
2022/08/15 01:46:40;;;;;;;8.60;3.10;;;39.10;50.50;;;;;;5046967;28;20078;-64
2022/08/15 01:49:14;;;;;;;10.13;2.58;;;39.10;50.60;;;;;;5028850;28;20063;-61
2022/08/15 01:51:42;;;;;;;8.40;2.70;;;39.00;50.30;;;;;;5029722;28;20052;-63
2022/08/15 01:54:12;;;;;;;7.03;2.60;;;39.00;50.20;;;;;;5028671;28;20419;-61
2022/08/15 01:56:43;;;;;;;15.73;3.55;;;38.90;50.70;;;;;;5029366;28;20450;-62
2022/08/15 01:59:20;;;;;;;11.43;3.17;;;38.90;50.60;;;;;;5030468;28;20053;-63
2022/08/15 02:01:55;;;;;;;7.43;2.60;;;38.80;50.30;;;;;;5069886;28;20111;-64
2022/08/15 02:04:26;;;;;;;9.43;2.93;;;38.70;50.40;;;;;;5069171;28;20106;-63
2022/08/15 02:06:53;;;;;;;23.63;3.70;;;38.70;50.60;;;;;;5072019;28;20050;-61
2022/08/15 02:09:20;;;;;;;19.23;4.00;;;38.70;52.30;;;;;;5055007;28;20053;-61
2022/08/15 02:11:51;;;;;;;20.85;4.25;;;38.60;53.60;;;;;;5072562;28;20065;-61
2022/08/15 02:14:20;;;;;;;14.15;4.68;;;38.50;54.10;;;;;;5069430;28;20051;-61
2022/08/15 02:16:47;;;;;;;26.67;4.72;;;38.40;54.30;;;;;;5070146;28;20518;-61
2022/08/15 02:19:15;;;;;;;20.45;3.72;;;38.30;54.80;;;;;;5071611;28;20072;-61
2022/08/15 02:21:47;;;;;;;16.95;3.15;;;38.20;54.80;;;;;;5071678;28;20084;-62
2022/08/15 02:24:21;;;;;;;24.83;2.92;;;38.20;55.10;;;;;;5069607;28;20418;-61
2022/08/15 02:26:50;;;;;;;24.92;3.08;;;38.00;55.30;;;;;;5071329;28;20056;-59
2022/08/15 02:29:17;;;;;;;22.15;3.65;;;37.90;55.60;;;;;;5072964;28;20040;-63
2022/08/15 02:31:44;;;;;;;14.02;2.17;;;37.80;55.30;;;;;;5071580;28;20071;-62
2022/08/15 02:34:11;;;;;;;19.58;2.30;;;37.80;55.10;;;;;;5072458;28;20147;-61
2022/08/15 02:36:38;;;;;;;12.85;1.92;;;37.70;55.20;;;;;;5069927;28;20077;-61
2022/08/15 02:39:08;;;;;;;12.57;1.98;;;37.60;55.70;;;;;;5071169;28;20142;-61
2022/08/15 02:41:38;;;;;;;10.27;2.58;;;37.60;56.10;;;;;;5072191;28;20148;-62
2022/08/15 02:44:06;;;;;;;12.40;2.25;;;37.50;56.40;;;;;;5066856;28;20078;-62
2022/08/15 02:46:32;;;;;;;18.90;2.72;;;37.40;56.50;;;;;;5072295;28;20840;-61
2022/08/15 02:49:11;;;;;;;14.02;2.80;;;37.30;56.60;;;;;;5070044;28;20406;-60
2022/08/15 02:51:38;;;;;;;17.27;2.47;;;37.20;56.70;;;;;;5072303;28;20100;-60
2022/08/15 02:54:05;;;;;;;17.58;2.88;;;37.20;56.60;;;;;;5070869;28;20458;-62
2022/08/15 02:56:33;;;;;;;22.13;2.95;;;37.10;56.70;;;;;;5070763;28;20065;-61
2022/08/15 02:59:00;;;;;;;12.52;2.67;;;37.00;56.80;;;;;;5070659;28;21126;-61
2022/08/15 03:01:27;;;;;;;15.07;3.35;;;36.90;56.90;;;;;;5070876;28;20424;-61
2022/08/15 03:03:56;;;;;;;13.70;2.80;;;36.90;57.10;;;;;;5070376;28;20127;-60
2022/08/15 03:06:26;;;;;;;27.13;3.30;;;36.90;56.90;;;;;;5070681;28;20459;-61
2022/08/15 03:08:58;;;;;;;14.25;2.90;;;36.80;57.00;;;;;;5069772;28;20050;-61
2022/08/15 03:11:25;;;;;;;20.98;3.00;;;36.80;57.10;;;;;;5072043;28;20485;-61
2022/08/15 03:13:51;;;;;;;13.88;3.00;;;36.70;56.90;;;;;;5071649;28;20050;-60
2022/08/15 03:16:18;;;;;;;25.45;3.70;;;36.70;56.90;;;;;;5070169;28;20085;-61
2022/08/15 03:18:44;;;;;;;15.88;3.15;;;36.60;57.00;;;;;;5070090;28;20141;-59
2022/08/15 03:21:17;;;;;;;10.55;2.90;;;36.50;56.90;;;;;;5070099;28;20069;-56
2022/08/15 03:23:48;;;;;;;18.50;3.35;;;36.50;56.70;;;;;;5070285;28;20050;-59
2022/08/15 03:26:17;;;;;;;16.88;3.03;;;36.40;56.80;;;;;;5069962;28;20101;-60
2022/08/15 03:28:44;;;;;;;22.30;3.10;;;36.40;56.70;;;;;;5070235;28;20099;-59
2022/08/15 03:31:10;;;;;;;18.48;2.85;;;36.30;56.70;;;;;;5070940;28;20120;-61
2022/08/15 03:33:39;;;;;;;24.02;3.17;;;36.30;56.90;;;;;;5070768;28;20060;-61
2022/08/15 03:36:07;;;;;;;16.27;3.17;;;36.20;56.80;;;;;;5070329;28;20119;-59
2022/08/15 03:38:34;;;;;;;8.80;2.53;;;36.20;56.60;;;;;;5070649;28;20060;-58
2022/08/15 03:41:01;;;;;;;19.42;3.00;;;36.20;56.80;;;;;;5070837;28;20481;-59
2022/08/15 03:43:29;;;;;;;19.33;2.97;;;36.10;56.80;;;;;;5076159;28;20061;-61
2022/08/15 03:46:02;;;;;;;26.35;3.55;;;36.10;56.80;;;;;;5089254;28;20197;-59
2022/08/15 03:48:36;;;;;;;20.85;3.22;;;36.00;56.90;;;;;;5071073;28;20507;-62
2022/08/15 03:51:04;;;;;;;17.60;2.75;;;36.00;56.90;;;;;;5082729;28;20057;-56
2022/08/15 03:53:36;;;;;;;15.85;3.10;;;35.90;56.90;;;;;;5071989;28;20065;-60
2022/08/15 03:56:05;;;;;;;16.70;3.05;;;36.00;56.80;;;;;;5070697;28;20064;-61
2022/08/15 03:58:32;;;;;;;18.95;2.95;;;36.00;56.90;;;;;;5070802;28;20054;-62
2022/08/15 04:00:59;;;;;;;20.42;3.28;;;35.90;56.70;;;;;;5070272;28;20065;-59
2022/08/15 04:03:29;;;;;;;18.30;3.22;;;35.90;56.70;;;;;;5071377;28;20058;-60
2022/08/15 04:05:58;;;;;;;15.05;3.47;;;35.90;56.70;;;;;;5067934;28;20069;-57
2022/08/15 04:08:30;;;;;;;12.13;2.70;;;35.80;57.10;;;;;;5069932;28;20134;-60
2022/08/15 04:10:59;;;;;;;12.68;2.63;;;35.80;57.60;;;;;;5070851;28;20066;-60
2022/08/15 04:13:26;;;;;;;13.15;3.22;;;35.80;58.20;;;;;;5070668;28;20054;-59
2022/08/15 04:15:56;;;;;;;15.82;3.90;;;35.80;59.00;;;;;;5071040;28;20063;-61
2022/08/15 04:18:27;;;;;;;10.63;3.35;;;35.70;59.60;;;;;;5069532;28;20115;-61
2022/08/15 04:21:03;;;;;;;32.47;5.00;;;35.70;60.00;;;;;;5068708;28;20066;-60
2022/08/15 04:23:30;;;;;;;55.55;5.22;;;35.60;61.00;;;;;;5055033;28;20070;-62
2022/08/15 04:25:57;;;;;;;53.70;5.18;;;35.50;62.60;;;;;;5067254;28;20067;-59
2022/08/15 04:28:25;;;;;;;30.27;4.20;;;35.50;63.20;;;;;;5067838;28;20113;-52
2022/08/15 04:30:52;;;;;;;31.42;4.32;;;35.40;63.60;;;;;;5052056;28;20157;-59
2022/08/15 04:33:28;;;;;;;55.25;5.25;;;35.50;64.30;;;;;;5068635;28;20064;-59
2022/08/15 04:35:58;;;;;;;98.68;7.90;;;35.30;62.90;;;;;;5067493;28;20097;-62
2022/08/15 04:38:24;;;;;;;162.13;13.00;;;35.30;62.10;;;;;;5067977;28;20519;-58
2022/08/15 04:40:53;;;;;;;234.68;17.67;;;35.20;60.70;;;;;;5069764;28;20144;-61
2022/08/15 04:43:22;;;;;;;251.55;19.27;;;35.10;60.40;;;;;;5070313;28;20592;-60
2022/08/15 04:45:50;;;;;;;365.70;31.25;;;35.00;61.00;;;;;;5066850;28;20085;-59
2022/08/15 04:48:17;;;;;;;355.92;34.47;;;34.90;60.90;;;;;;5069054;28;20065;-59
2022/08/15 04:50:48;;;;;;;354.90;32.50;;;34.70;61.30;;;;;;5066965;28;20064;-60
2022/08/15 04:53:19;;;;;;;297.27;27.15;;;34.60;61.80;;;;;;5067975;28;20073;-61
2022/08/15 04:55:47;;;;;;;364.58;31.20;;;34.50;62.20;;;;;;5051588;28;20613;-60
2022/08/15 04:58:15;;;;;;;350.10;30.15;;;34.50;62.20;;;;;;5068652;28;20423;-62
2022/08/15 05:00:53;;;;;;;346.95;30.05;;;34.40;62.90;;;;;;5058471;28;20069;-59
2022/08/15 05:03:20;;;;;;;362.88;32.88;;;34.30;62.70;;;;;;5066473;28;20072;-61
2022/08/15 05:05:55;;;;;;;476.83;41.70;;;34.10;64.60;;;;;;5052156;28;20064;-60
2022/08/15 05:08:27;;;;;;;781.30;78.05;;;33.90;65.80;;;;;;5073487;28;20185;-61
2022/08/15 05:11:05;;;;;;;984.78;102.93;;;33.60;68.30;;;;;;5067931;28;20074;-63
2022/08/15 05:13:35;;;;;;;1236.60;128.75;;;33.30;70.30;;;;;;5067096;28;20081;-62
2022/08/15 05:16:07;;;;;;;1019.63;111.40;;;33.10;72.10;;;;;;5068401;28;20137;-62
2022/08/15 05:18:35;;;;;;;897.53;89.05;;;33.00;73.20;;;;;;5068300;28;20444;-64
2022/08/15 05:21:02;;;;;;;716.33;71.70;;;32.80;74.60;;;;;;5067933;28;20475;-63
2022/08/15 05:23:29;;;;;;;651.03;63.85;;;32.70;75.40;;;;;;5068902;28;20072;-62
2022/08/15 05:25:59;;;;;;;528.45;47.97;;;32.60;76.10;;;;;;5067835;28;20154;-62
2022/08/15 05:28:26;;;;;;;349.23;30.90;;;32.50;77.00;;;;;;5067308;28;20560;-61
2022/08/15 05:30:54;;;;;;;184.25;16.67;;;32.40;77.60;;;;;;5051148;28;20072;-64
2022/08/15 05:33:25;;;;;;;126.65;10.75;;;32.30;78.50;;;;;;5049596;28;20129;-60
2022/08/15 05:35:59;;;;;;;92.93;7.65;;;32.10;79.60;;;;;;5050869;28;20102;-61
2022/08/15 05:38:40;;;;;;;76.97;7.13;;;32.00;80.70;;;;;;5050887;28;20067;-63
2022/08/15 05:41:10;;;;;;;75.97;5.53;;;31.90;81.50;;;;;;5065103;28;20541;-63
2022/08/15 05:44:11;;;;;;;80.22;7.38;;;31.90;82.00;;;;;;5071592;28;20072;-63
2022/08/15 05:46:41;;;;;;;55.85;5.03;;;31.80;82.70;;;;;;5068185;28;20094;-63
2022/08/15 05:49:25;;;;;;;49.85;4.90;;;31.70;83.10;;;;;;5065433;28;20109;-59
2022/08/15 05:52:18;;;;;;;46.00;4.22;;;31.60;83.80;;;;;;5066385;28;20076;-61
2022/08/15 05:54:57;;;;;;;58.40;5.18;;;31.60;84.50;;;;;;5068161;28;20083;-62
2022/08/15 05:57:42;;;;;;;53.38;6.05;;;31.60;84.80;;;;;;5066133;28;21446;-61
2022/08/15 06:00:12;;;;;;;85.85;6.75;;;31.60;84.90;;;;;;5049285;28;20100;-60
2022/08/15 06:02:47;;;;;;;104.60;7.45;;;31.50;84.80;;;;;;5065640;28;20142;-61
2022/08/15 06:05:38;;;;;;;81.78;6.57;;;31.50;85.30;;;;;;5066077;28;20067;-62
2022/08/15 06:08:21;;;;;;;64.65;5.72;;;31.40;85.30;;;;;;5066328;28;20084;-61
2022/08/15 06:10:53;;;;;;;51.30;4.80;;;31.30;86.00;;;;;;5049594;28;20550;-62
2022/08/15 06:13:24;;;;;;;51.25;6.25;;;31.30;85.90;;;;;;5067607;28;20429;-62
2022/08/15 06:16:24;;;;;;;51.95;6.45;;;31.30;86.10;;;;;;5067414;28;20505;-61
2022/08/15 06:18:54;;;;;;;50.20;6.18;;;31.30;86.60;;;;;;5069683;28;20102;-61
2022/08/15 06:21:20;;;;;;;39.53;4.75;;;31.20;86.10;;;;;;5066545;28;20091;-61
2022/08/15 06:23:57;;;;;;;34.05;4.75;;;31.20;86.40;;;;;;5068338;28;20517;-65
2022/08/15 06:26:29;;;;;;;28.63;4.93;;;31.30;86.50;;;;;;5051048;28;20067;-63
2022/08/15 06:29:14;;;;;;;34.30;4.13;;;31.30;85.90;;;;;;5071614;28;20480;-61
2022/08/15 06:31:48;;;;;;;26.27;4.55;;;31.20;86.10;;;;;;5066719;28;20068;-62
2022/08/15 06:34:56;;;;;;;27.98;3.08;;;31.30;86.00;;;;;;5064902;28;20078;-62
2022/08/15 06:37:31;;;;;;;22.10;2.75;;;31.20;85.30;;;;;;5061274;28;20086;-62
2022/08/15 06:40:10;;;;;;;21.70;3.05;;;31.30;85.80;;;;;;5066804;28;20110;-62
2022/08/15 06:42:42;;;;;;;22.67;3.08;;;31.30;85.90;;;;;;5066997;28;20082;-62
2022/08/15 06:45:33;;;;;;;26.35;2.92;;;31.30;86.20;;;;;;5050292;28;20079;-62
2022/08/15 06:48:07;;;;;;;28.42;2.97;;;31.30;86.40;;;;;;5065386;28;20137;-62
2022/08/15 06:50:46;;;;;;;26.50;2.40;;;31.30;85.80;;;;;;5049330;28;20076;-63
2022/08/15 06:53:27;;;;;;;30.67;2.67;;;31.20;85.80;;;;;;5070023;28;20803;-62
2022/08/15 06:56:02;;;;;;;36.15;2.92;;;31.20;86.10;;;;;;5069442;28;20075;-62
2022/08/15 06:58:54;;;;;;;34.63;3.00;;;31.20;86.70;;;;;;5069297;28;20091;-63
2022/08/15 07:01:45;;;;;;;29.38;3.70;;;31.20;86.60;;;;;;5070339;28;20182;-62
2022/08/15 07:04:37;;;;;;;38.25;3.05;;;31.20;86.60;;;;;;5066196;28;20541;-62
2022/08/15 07:07:27;;;;;;;51.85;4.38;;;31.20;86.80;;;;;;5068895;28;20075;-63
2022/08/15 07:10:01;;;;;;;36.50;4.00;;;31.10;86.40;;;;;;5072041;28;20445;-62
2022/08/15 07:12:40;;;;;;;36.60;3.60;;;31.10;86.60;;;;;;5071293;28;20095;-62
2022/08/15 07:15:16;;;;;;;46.65;4.10;;;31.10;86.60;;;;;;5069415;28;20076;-62
2022/08/15 07:17:50;;;;;;;60.88;5.63;;;31.10;86.50;;;;;;5085491;28;20095;-63
2022/08/15 07:20:17;;;;;;;49.22;4.25;;;31.00;86.40;;;;;;5053120;28;20088;-63
2022/08/15 07:22:44;;;;;;;53.92;4.97;;;31.10;86.70;;;;;;5053722;28;20092;-63
2022/08/15 07:25:15;;;;;;;63.80;5.72;;;31.10;86.80;;;;;;5069893;28;20530;-63
2022/08/15 07:27:52;;;;;;;87.68;7.10;;;31.10;86.60;;;;;;5070373;28;20096;-63
2022/08/15 07:30:26;;;;;;;129.15;9.68;;;31.10;86.60;;;;;;5070087;28;20067;-62
2022/08/15 07:32:55;;;;;;;113.18;9.30;;;31.10;86.30;;;;;;5053072;28;20171;-64
2022/08/15 07:35:26;;;;;;;110.30;12.10;;;31.00;86.60;;;;;;5068933;28;20187;-62
2022/08/15 07:38:06;;;;;;;137.88;11.50;;;31.10;86.70;;;;;;5069572;28;20476;-63
2022/08/15 07:40:42;;;;;;;167.65;13.65;;;31.10;87.00;;;;;;5069345;28;20102;-64
2022/08/15 07:43:30;;;;;;;169.02;14.77;;;31.10;86.90;;;;;;5052050;28;20575;-62
2022/08/15 07:46:12;;;;;;;164.98;14.68;;;31.10;86.90;;;;;;5071573;28;20091;-62
2022/08/15 07:48:40;;;;;;;185.10;15.57;;;31.10;87.20;;;;;;5068581;28;20121;-63
2022/08/15 07:51:29;;;;;;;185.50;14.82;;;31.10;87.50;;;;;;5068351;28;20073;-62
2022/08/15 07:54:00;;;;;;;200.48;17.77;;;31.10;87.40;;;;;;5051378;28;20103;-62
2022/08/15 07:56:29;;;;;;;251.60;21.10;;;31.10;87.40;;;;;;5069577;28;20120;-63
2022/08/15 07:59:13;;;;;;;282.70;22.05;;;31.10;86.90;;;;;;5069581;28;20068;-63
2022/08/15 08:01:39;;;;;;;282.58;24.40;;;31.10;86.50;;;;;;5068483;28;20095;-63
2022/08/15 08:04:06;;;;;;;258.83;24.10;;;31.20;86.30;;;;;;5051863;28;20084;-62
2022/08/15 08:06:41;;;;;;;291.35;26.05;;;31.20;86.50;;;;;;5068397;28;20607;-62
2022/08/15 08:09:20;;;;;;;294.58;26.23;;;31.20;86.20;;;;;;5069188;28;20078;-62
2022/08/15 08:12:38;;;;;;;263.17;23.50;;;31.20;85.90;;;;;;5067627;28;20091;-62
2022/08/15 08:15:20;;;;;;;239.40;22.13;;;31.20;85.80;;;;;;5069984;28;20090;-62
2022/08/15 08:18:11;;;;;;;248.65;23.90;;;31.20;85.80;;;;;;5068955;28;20327;-62
2022/08/15 08:20:53;;;;;;;254.68;20.30;;;31.20;85.80;;;;;;5068058;28;20082;-63
2022/08/15 08:23:42;;;;;;;249.38;20.40;;;31.20;85.30;;;;;;5070894;28;20076;-64
2022/08/15 08:26:40;;;;;;;223.93;20.02;;;31.20;85.10;;;;;;5068285;28;20122;-62
2022/08/15 08:29:12;;;;;;;206.02;20.10;;;31.20;85.00;;;;;;5068058;28;20062;-62
2022/08/15 08:32:01;;;;;;;172.02;16.05;;;31.20;84.70;;;;;;5067429;28;20158;-62
2022/08/15 08:34:45;;;;;;;139.27;14.65;;;31.20;84.40;;;;;;5067857;28;20568;-62
2022/08/15 08:37:36;;;;;;;161.18;15.13;;;31.30;84.60;;;;;;5052229;28;20568;-62
2022/08/15 08:43:39;;;;;;;144.25;13.20;;;31.30;84.00;;;;;;5068888;28;20110;-62
2022/08/15 08:46:20;;;;;;;133.95;12.73;;;31.30;84.00;;;;;;5045473;28;20621;-63
2022/08/15 08:49:09;;;;;;;122.72;11.93;;;31.30;84.00;;;;;;5067338;28;20068;-62
2022/08/15 08:51:45;;;;;;;121.22;12.05;;;31.30;83.50;;;;;;5068071;28;20087;-62
2022/08/15 08:54:26;;;;;;;111.80;11.05;;;31.30;83.60;;;;;;5068080;28;20083;-63
2022/08/15 08:57:00;;;;;;;126.25;10.82;;;31.30;83.40;;;;;;5053154;28;20106;-62
2022/08/15 08:59:53;;;;;;;100.30;10.43;;;31.30;83.50;;;;;;5067873;28;20095;-62
2022/08/15 09:02:28;;;;;;;86.18;10.68;;;31.30;83.20;;;;;;5068831;28;20452;-62
2022/08/15 09:05:03;;;;;;;121.05;11.02;;;31.30;83.20;;;;;;5068530;28;20075;-62
2022/08/15 09:07:34;;;;;;;121.05;10.30;;;31.30;82.70;;;;;;5066014;28;20521;-62
2022/08/15 09:10:06;;;;;;;103.00;10.20;;;31.30;82.40;;;;;;5051131;28;20161;-62
2022/08/15 09:15:29;;;;;;;116.43;10.57;;;31.30;82.10;;;;;;5066491;28;20102;-62
2022/08/15 09:18:03;;;;;;;101.03;9.82;;;31.30;82.70;;;;;;5069690;28;20084;-62
2022/08/15 09:20:33;;;;;;;94.57;9.82;;;31.40;82.20;;;;;;5051277;28;20128;-63
2022/08/15 09:23:00;;;;;;;114.65;10.80;;;31.30;82.10;;;;;;5049657;28;20096;-65
2022/08/15 09:25:29;;;;;;;123.18;9.00;;;31.40;81.60;;;;;;5067348;28;20076;-67
2022/08/15 09:28:05;;;;;;;119.13;9.70;;;31.40;81.30;;;;;;5067022;28;20068;-65
2022/08/15 09:30:33;;;;;;;114.53;11.00;;;31.50;81.20;;;;;;5069131;28;20111;-66
2022/08/15 09:33:29;;;;;;;105.35;10.60;;;31.60;80.80;;;;;;5051694;28;20095;-66
2022/08/15 09:36:12;;;;;;;101.53;8.35;;;31.70;81.00;;;;;;5066950;28;20102;-68
2022/08/15 09:39:06;;;;;;;102.03;9.27;;;31.80;80.80;;;;;;5068235;28;20128;-66
2022/08/15 09:41:56;;;;;;;108.57;10.68;;;31.90;80.30;;;;;;5068280;28;20127;-66
2022/08/15 09:44:44;;;;;;;118.88;10.82;;;31.90;80.00;;;;;;5066498;28;20248;-66
2022/08/15 09:47:41;;;;;;;93.55;10.57;;;31.90;79.70;;;;;;5068345;28;20068;-66
2022/08/15 09:50:32;;;;;;;114.25;9.93;;;31.80;79.60;;;;;;5065589;28;20067;-66
2022/08/15 09:53:17;;;;;;;100.88;9.75;;;32.00;80.00;;;;;;5066535;28;20681;-66
2022/08/15 09:55:47;;;;;;;108.05;9.45;;;32.10;79.90;;;;;;5088729;22;20534;-66
2022/08/15 09:58:35;;;;;;;100.50;9.43;;;32.10;80.20;;;;;;5070265;28;20066;-66
2022/08/15 10:01:14;;;;;;;122.18;11.15;;;32.00;80.50;;;;;;5076946;28;20075;-66
2022/08/15 10:03:43;;;;;;;109.07;12.57;;;32.10;80.00;;;;;;5068360;28;20619;-67
2022/08/15 10:06:18;;;;;;;126.55;13.60;;;32.00;79.60;;;;;;5070594;28;20085;-66
2022/08/15 10:08:53;;;;;;;102.32;13.65;;;32.00;80.20;;;;;;5056501;28;20162;-67
2022/08/15 10:12:00;;;;;;;105.47;15.20;;;32.00;80.00;;;;;;5069362;28;20125;-66
2022/08/15 10:14:39;;;;;;;100.57;16.83;;;32.00;79.90;;;;;;5069196;28;20109;-66
2022/08/15 10:17:27;;;;;;;101.32;15.38;;;32.00;80.80;;;;;;5071429;28;20075;-66
2022/08/15 10:19:56;;;;;;;109.10;17.80;;;32.00;80.60;;;;;;5082572;28;20077;-66
2022/08/15 10:22:22;;;;;;;105.85;15.90;;;32.10;80.80;;;;;;5067576;28;20088;-66
2022/08/15 10:25:17;;;;;;;124.05;13.30;;;32.10;80.90;;;;;;5067133;28;20091;-68
2022/08/15 10:27:54;;;;;;;122.57;14.55;;;32.00;80.70;;;;;;5070640;28;20067;-66
2022/08/15 10:30:26;;;;;;;104.10;11.40;;;32.10;80.80;;;;;;5070546;28;20076;-66
2022/08/15 10:32:53;;;;;;;92.88;10.45;;;32.10;80.60;;;;;;5071103;28;20079;-66
2022/08/15 10:35:32;;;;;;;107.97;11.93;;;31.90;80.70;;;;;;5070270;28;20148;-66
2022/08/15 10:38:02;;;;;;;119.95;10.88;;;31.90;82.40;;;;;;5070820;28;20159;-66
2022/08/15 10:40:31;;;;;;;123.00;11.60;;;31.90;81.10;;;;;;5055194;28;20100;-66
2022/08/15 10:43:21;;;;;;;115.65;11.98;;;31.70;81.90;;;;;;5070765;28;20095;-65
2022/08/15 10:46:19;;;;;;;117.20;12.30;;;31.50;83.20;;;;;;5070688;28;20084;-65
2022/08/15 10:49:21;;;;;;;136.07;12.13;;;31.40;83.80;;;;;;5072056;28;20087;-66
2022/08/15 10:52:01;;;;;;;121.85;12.95;;;31.30;84.60;;;;;;5070908;28;20188;-67
2022/08/15 10:54:46;;;;;;;110.53;11.48;;;31.20;85.10;;;;;;5070226;28;20125;-66
2022/08/15 10:57:21;;;;;;;113.93;11.98;;;31.10;85.80;;;;;;5072362;28;20125;-67
2022/08/15 10:59:51;;;;;;;110.22;11.13;;;31.00;86.30;;;;;;5071440;28;20502;-67
2022/08/15 11:02:47;;;;;;;114.72;12.13;;;30.90;87.10;;;;;;5068907;28;20091;-68
2022/08/15 11:05:17;;;;;;;98.27;9.30;;;30.90;87.50;;;;;;5069046;28;20082;-66
2022/08/15 11:07:53;;;;;;;97.40;9.20;;;30.80;88.30;;;;;;5070542;28;20170;-66
2022/08/15 11:10:23;;;;;;;108.68;10.70;;;30.80;88.60;;;;;;5070767;28;20074;-66
2022/08/15 11:12:57;;;;;;;82.88;8.15;;;30.80;88.90;;;;;;5070806;28;20079;-67
2022/08/15 11:15:30;;;;;;;78.22;8.65;;;30.70;88.90;;;;;;5070700;28;20075;-66
2022/08/15 11:18:08;;;;;;;59.95;7.05;;;30.70;89.40;;;;;;5073539;28;20240;-66
2022/08/15 11:20:42;;;;;;;55.97;5.45;;;30.60;90.20;;;;;;5071171;28;20076;-65
2022/08/15 11:23:09;;;;;;;41.38;4.28;;;30.60;90.20;;;;;;5070126;28;20440;-66
2022/08/15 11:25:43;;;;;;;49.03;5.32;;;30.40;90.60;;;;;;5070244;28;20508;-66
2022/08/15 11:28:21;;;;;;;45.40;5.25;;;30.40;91.10;;;;;;5070228;28;20433;-66
2022/08/15 11:30:48;;;;;;;39.42;5.68;;;30.40;91.30;;;;;;5069792;28;20087;-65
2022/08/15 11:33:30;;;;;;;37.85;4.20;;;30.30;91.80;;;;;;5069754;28;20529;-66
2022/08/15 11:36:19;;;;;;;40.67;5.50;;;30.30;91.90;;;;;;5054357;28;20110;-66
2022/08/15 11:38:51;;;;;;;47.35;5.50;;;30.20;92.10;;;;;;5067882;28;20559;-65
2022/08/15 11:41:22;;;;;;;52.97;5.70;;;30.10;92.10;;;;;;5068290;28;20437;-66
2022/08/15 11:43:51;;;;;;;48.72;4.90;;;30.10;92.00;;;;;;5052972;28;20068;-66
2022/08/15 11:46:24;;;;;;;49.58;4.53;;;30.10;92.20;;;;;;5069475;28;20080;-66
2022/08/15 11:49:04;;;;;;;45.90;4.95;;;30.10;92.20;;;;;;5054153;28;20088;-66
2022/08/15 11:51:40;;;;;;;33.90;5.07;;;30.10;92.50;;;;;;5068982;28;20090;-66
2022/08/15 11:54:10;;;;;;;41.65;4.38;;;30.10;92.30;;;;;;5069124;28;20079;-66
2022/08/15 11:56:57;;;;;;;39.33;4.93;;;30.10;92.40;;;;;;5068065;28;20100;-65
2022/08/15 11:59:29;;;;;;;30.55;4.22;;;30.10;92.40;;;;;;5085066;28;20072;-66
2022/08/15 12:02:04;;;;;;;35.42;4.35;;;30.10;92.40;;;;;;5069671;28;20468;-66
2022/08/15 12:04:33;;;;;;;43.58;4.57;;;30.10;92.40;;;;;;5068821;28;20072;-66
2022/08/15 12:07:19;;;;;;;54.60;4.53;;;30.20;92.40;;;;;;5069444;28;20076;-66
2022/08/15 12:10:02;;;;;;;47.07;4.97;;;30.10;91.60;;;;;;5071451;28;20095;-66
2022/08/15 12:12:37;;;;;;;42.85;4.18;;;30.10;92.00;;;;;;5071002;28;20079;-66
2022/08/15 12:15:16;;;;;;;42.15;4.72;;;30.10;91.80;;;;;;5069083;28;20076;-67
2022/08/15 12:18:00;;;;;;;37.65;4.53;;;30.10;91.50;;;;;;5069642;28;20140;-66
2022/08/15 12:20:45;;;;;;;49.47;4.50;;;30.10;91.70;;;;;;5069787;28;20068;-68
2022/08/15 12:23:41;;;;;;;53.92;5.10;;;30.10;91.60;;;;;;5069540;28;20087;-66
2022/08/15 12:26:11;;;;;;;45.65;4.50;;;30.10;91.70;;;;;;5067143;28;20437;-66
2022/08/15 12:28:39;;;;;;;48.35;4.57;;;30.10;91.70;;;;;;5067411;28;20075;-66
2022/08/15 12:31:21;;;;;;;46.03;5.00;;;30.10;91.80;;;;;;5068070;28;20581;-66
2022/08/15 12:34:00;;;;;;;34.70;4.57;;;30.10;91.80;;;;;;5069928;28;20187;-66
2022/08/15 12:36:28;;;;;;;39.25;3.75;;;30.10;91.30;;;;;;5068645;28;20068;-66
2022/08/15 12:38:54;;;;;;;37.42;4.35;;;30.10;91.30;;;;;;5068767;28;20084;-66
2022/08/15 12:41:21;;;;;;;37.22;3.95;;;30.20;91.20;;;;;;5084728;28;20110;-66
2022/08/15 12:43:48;;;;;;;32.55;4.10;;;30.20;90.90;;;;;;5068336;28;20068;-68
2022/08/15 12:46:15;;;;;;;47.22;3.75;;;30.20;90.60;;;;;;5068766;28;20083;-68
2022/08/15 12:48:43;;;;;;;29.17;3.53;;;30.20;90.60;;;;;;5063261;28;20072;-67
2022/08/15 12:51:11;;;;;;;32.85;4.00;;;30.20;90.80;;;;;;5068068;28;20068;-65
2022/08/15 12:53:38;;;;;;;41.25;4.03;;;30.20;90.80;;;;;;5066142;28;20072;-66
2022/08/15 12:56:09;;;;;;;32.42;3.33;;;30.20;90.60;;;;;;5064998;28;20139;-66
2022/08/15 12:58:36;;;;;;;25.17;4.25;;;30.20;90.60;;;;;;5066883;28;20064;-66
2022/08/15 13:01:10;;;;;;;41.53;4.57;;;30.10;90.80;;;;;;5067570;28;20483;-65
2022/08/15 13:03:42;;;;;;;48.15;4.43;;;30.10;91.40;;;;;;5067897;28;20163;-65
2022/08/15 13:06:19;;;;;;;24.80;3.67;;;30.10;91.70;;;;;;5067261;28;20067;-65
2022/08/15 13:08:45;;;;;;;42.00;4.65;;;30.10;91.50;;;;;;5066990;28;20541;-66
2022/08/15 13:11:12;;;;;;;43.20;4.22;;;30.10;91.80;;;;;;5068186;28;20166;-65
2022/08/15 13:13:38;;;;;;;40.97;4.55;;;30.10;91.70;;;;;;5067704;28;20071;-65
2022/08/15 13:16:08;;;;;;;30.40;4.15;;;30.10;91.60;;;;;;5067626;28;20110;-65